Time;durP1;ratioP1;P1;durP2;ratioP2;P2;SDS_P1;SDS_P2;PMS_P1;PMS_P2;Temp;Humidity;BMP_temperature;BMP_pressure;BME280_temperature;BME280_humidity;BME280_pressure;Samples;Min_cycle;Max_cycle;Signal;HPM_P1;HPM_P2
2023/05/08 00:00:07;;;;;;;;;;;;;;;;;;5093307;28;19947;-68
2023/05/08 00:02:34;;;;;;;;;;;;;;;;;;5072143;28;20383;-68
2023/05/08 00:05:01;;;;;;;;;;;;;;;;;;5073229;28;19925;-68
2023/05/08 00:07:28;;;;;;;;;;;;;;;;;;5083744;28;19924;-68
2023/05/08 00:09:56;;;;;;;;;;;;;;;;;;5092146;28;21486;-67
2023/05/08 00:12:23;;;;;;;;;;;;;;;;;;5071963;28;19928;-67
2023/05/08 00:14:50;;;;;;;;;;;;;;;;;;5071108;28;20363;-67
2023/05/08 00:17:17;;;;;;;;;;;;;;;;;;5074620;28;19925;-67
2023/05/08 00:19:44;;;;;;;;;;;;;;;;;;5072614;28;19963;-67
2023/05/08 00:22:11;;;;;;;;;;;;;;;;;;5071323;28;19974;-67
2023/05/08 00:24:38;;;;;;;;;;;;;;;;;;5071551;28;19924;-67
2023/05/08 00:27:06;;;;;;;;;;;;;;;;;;5071216;28;20026;-67
2023/05/08 00:29:33;;;;;;;;;;;;;;;;;;5072175;28;19925;-67
2023/05/08 00:32:00;;;;;;;;;;;;;;;;;;5071170;28;19928;-68
2023/05/08 00:34:27;;;;;;;;;;;;;;;;;;5071643;28;19955;-68
2023/05/08 00:36:54;;;;;;;;;;;;;;;;;;5070950;28;19972;-67
2023/05/08 00:39:21;;;;;;;;;;;;;;;;;;5080616;28;19924;-67
2023/05/08 00:41:48;;;;;;;;;;;;;;;;;;5080613;28;19924;-68
2023/05/08 00:44:15;;;;;;;;;;;;;;;;;;5082985;28;20034;-68
2023/05/08 00:46:42;;;;;;;;;;;;;;;;;;5076705;28;19976;-68
2023/05/08 00:49:12;;;;;;;;;;;;;;;;;;5071877;28;19925;-67
2023/05/08 00:51:39;;;;;;;;;;;;;;;;;;5071079;28;19925;-67
2023/05/08 00:54:06;;;;;;;;;;;;;;;;;;5071879;28;19975;-67
2023/05/08 00:56:33;;;;;;;;;;;;;;;;;;5068865;28;19928;-67
2023/05/08 00:59:00;;;;;;;;;;;;;;;;;;5083662;28;19924;-68
2023/05/08 01:01:27;;;;;;;;;;;;;;;;;;5083565;28;19978;-67
2023/05/08 01:03:54;;;;;;;;;;;;;;;;;;5074597;28;19924;-68
2023/05/08 01:06:21;;;;;;;;;;;;;;;;;;5072829;28;19932;-68
2023/05/08 01:08:48;;;;;;;;;;;;;;;;;;5067079;28;19928;-68
2023/05/08 01:11:15;;;;;;;;;;;;;;;;;;5070678;28;20382;-68
2023/05/08 01:13:42;;;;;;;;;;;;;;;;;;5071321;28;19978;-67
2023/05/08 01:16:09;;;;;;;;;;;;;;;;;;5079754;28;19973;-68
2023/05/08 01:18:36;;;;;;;;;;;;;;;;;;5071307;28;19990;-68
2023/05/08 01:21:03;;;;;;;;;;;;;;;;;;5072612;28;19925;-67
2023/05/08 01:23:30;;;;;;;;;;;;;;;;;;5074825;28;20379;-67
2023/05/08 01:25:57;;;;;;;;;;;;;;;;;;5070832;28;19933;-65
2023/05/08 01:28:25;;;;;;;;;;;;;;;;;;5070896;28;20286;-65
2023/05/08 01:30:52;;;;;;;;;;;;;;;;;;5085271;28;19935;-64
2023/05/08 01:33:19;;;;;;;;;;;;;;;;;;5076231;28;19993;-65
2023/05/08 01:35:46;;;;;;;;;;;;;;;;;;5078745;28;19967;-66
2023/05/08 01:38:13;;;;;;;;;;;;;;;;;;5074481;28;20019;-67
2023/05/08 01:40:40;;;;;;;;;;;;;;;;;;5072659;28;19925;-71
2023/05/08 01:43:07;;;;;;;;;;;;;;;;;;5070258;28;19928;-66
2023/05/08 01:45:34;;;;;;;;;;;;;;;;;;5092023;28;19925;-67
2023/05/08 01:48:01;;;;;;;;;;;;;;;;;;5095741;28;19928;-65
2023/05/08 01:50:28;;;;;;;;;;;;;;;;;;5089099;28;19924;-66
2023/05/08 01:52:55;;;;;;;;;;;;;;;;;;5073436;28;19925;-66
2023/05/08 01:55:22;;;;;;;;;;;;;;;;;;5078983;28;19924;-66
2023/05/08 01:57:49;;;;;;;;;;;;;;;;;;5074356;28;19971;-66
2023/05/08 02:00:16;;;;;;;;;;;;;;;;;;5095475;28;19974;-66
2023/05/08 02:02:43;;;;;;;;;;;;;;;;;;5084750;28;19928;-66
2023/05/08 02:05:10;;;;;;;;;;;;;;;;;;5075056;28;19924;-66
2023/05/08 02:07:37;;;;;;;;;;;;;;;;;;5073163;28;20421;-66
2023/05/08 02:10:04;;;;;;;;;;;;;;;;;;5075985;28;19924;-66
2023/05/08 02:12:32;;;;;;;;;;;;;;;;;;5075328;28;20383;-66
2023/05/08 02:14:59;;;;;;;;;;;;;;;;;;5082512;28;19924;-66
2023/05/08 02:17:26;;;;;;;;;;;;;;;;;;5074834;28;20445;-66
2023/05/08 02:19:53;;;;;;;;;;;;;;;;;;5075233;28;19924;-66
2023/05/08 02:22:21;;;;;;;;;;;13.50;99.90;;;;;;5070354;28;19968;-66
2023/05/08 02:24:51;;;;;;;;;;;13.20;99.90;;;;;;5065059;28;19924;-67
2023/05/08 02:27:21;;;;;;;;;;;13.10;99.90;;;;;;5077451;28;19954;-66
2023/05/08 02:29:48;;;;;;;;;;;13.10;99.90;;;;;;5075307;28;19950;-66
2023/05/08 02:32:15;;;;;;;;;;;;;;;;;;5072231;28;19981;-66
2023/05/08 02:34:42;;;;;;;;;;;;;;;;;;5077337;28;19924;-66
2023/05/08 02:37:09;;;;;;;;;;;;;;;;;;5077175;28;19990;-66
2023/05/08 02:39:36;;;;;;;;;;;;;;;;;;5074305;28;19975;-66
2023/05/08 02:42:03;;;;;;;;;;;;;;;;;;5073599;28;19924;-66
2023/05/08 02:44:30;;;;;;;;;;;;;;;;;;5078462;28;19977;-66
2023/05/08 02:46:57;;;;;;;;;;;;;;;;;;5077654;28;20382;-66
2023/05/08 02:49:25;;;;;;;;;;;;;;;;;;5086539;28;20373;-66
2023/05/08 02:51:52;;;;;;;;;;;;;;;;;;5073357;28;20455;-66
2023/05/08 02:54:19;;;;;;;;;;;;;;;;;;5074064;28;19925;-66
2023/05/08 02:56:46;;;;;;;;;;;;;;;;;;5071734;28;19924;-66
2023/05/08 02:59:13;;;;;;;;;;;;;;;;;;5074521;28;20338;-66
2023/05/08 03:01:40;;;;;;;;;;;;;;;;;;5075128;28;20739;-66
2023/05/08 03:04:07;;;;;;;;;;;;;;;;;;5077462;28;19974;-66
2023/05/08 03:06:34;;;;;;;;;;;;;;;;;;5092345;28;19969;-66
2023/05/08 03:09:01;;;;;;;;;;;;;;;;;;5073652;28;19924;-66
2023/05/08 03:11:28;;;;;;;;;;;;;;;;;;5071736;28;19924;-66
2023/05/08 03:13:55;;;;;;;;;;;;;;;;;;5072182;28;20432;-66
2023/05/08 03:16:22;;;;;;;;;;;;;;;;;;5054757;28;19944;-66
2023/05/08 03:18:49;;;;;;;;;;;;;;;;;;5074499;28;19924;-66
2023/05/08 03:21:20;;;;;;;;;;;13.10;99.90;;;;;;5073334;28;20333;-66
2023/05/08 03:23:47;;;;;;;;;;;;;;;;;;5083067;28;20007;-66
2023/05/08 03:26:14;;;;;;;;;;;;;;;;;;5072036;28;19924;-66
2023/05/08 03:28:41;;;;;;;;;;;;;;;;;;5072101;28;19980;-66
2023/05/08 03:31:08;;;;;;;;;;;;;;;;;;5072667;28;19929;-66
2023/05/08 03:33:35;;;;;;;;;;;;;;;;;;5091988;28;19928;-66
2023/05/08 03:36:02;;;;;;;;;;;;;;;;;;5079120;28;19925;-66
2023/05/08 03:38:29;;;;;;;;;;;;;;;;;;5078496;28;19924;-66
2023/05/08 03:40:56;;;;;;;;;;;;;;;;;;5072342;28;19924;-67
2023/05/08 03:43:23;;;;;;;;;;;;;;;;;;5053348;28;19971;-67
2023/05/08 03:45:50;;;;;;;;;;;;;;;;;;5053633;28;19960;-67
2023/05/08 03:48:17;;;;;;;;;;;;;;;;;;5055608;28;19925;-67
2023/05/08 03:50:44;;;;;;;;;;;;;;;;;;5093321;28;20448;-67
2023/05/08 03:53:11;;;;;;;;;;;;;;;;;;5076038;28;19960;-67
2023/05/08 03:55:40;;;;;;;;;;;;;;;;;;5078104;28;19924;-67
2023/05/08 03:58:07;;;;;;;;;;;;;;;;;;5074728;28;19931;-67
2023/05/08 04:00:34;;;;;;;;;;;;;;;;;;5072835;28;19994;-67
2023/05/08 04:03:01;;;;;;;;;;;;;;;;;;5074177;28;19924;-67
2023/05/08 04:05:28;;;;;;;;;;;;;;;;;;5072279;28;19970;-67
2023/05/08 04:07:55;;;;;;;;;;;;;;;;;;5070485;28;20367;-67
2023/05/08 04:10:22;;;;;;;;;;;;;;;;;;5079680;28;19959;-67
2023/05/08 04:12:50;;;;;;;;;;;;;;;;;;5077496;28;20044;-66
2023/05/08 04:15:17;;;;;;;;;;;;;;;;;;5071722;28;19935;-67
2023/05/08 04:17:44;;;;;;;;;;;;;;;;;;5077086;28;19974;-67
2023/05/08 04:20:12;;;;;;;;;;;;;;;;;;5071660;28;19928;-67
2023/05/08 04:22:39;;;;;;;;;;;;;;;;;;5064977;28;20007;-68
2023/05/08 04:25:06;;;;;;;;;;;;;;;;;;5063291;28;19932;-68
2023/05/08 04:27:33;;;;;;;;;;;;;;;;;;5073010;28;20414;-67
2023/05/08 04:30:00;;;;;;;;;;;;;;;;;;5070353;28;19928;-67
2023/05/08 04:32:27;;;;;;;;;;;;;;;;;;5070299;28;20395;-67
2023/05/08 04:34:55;;;;;;;;;;;;;;;;;;5070152;28;20454;-67
2023/05/08 04:37:22;;;;;;;;;;;;;;;;;;5071753;28;20330;-67
2023/05/08 04:39:49;;;;;;;;;;;;;;;;;;5069663;28;19940;-67
2023/05/08 04:42:16;;;;;;;;;;;;;;;;;;5071145;28;19966;-67
2023/05/08 04:44:43;;;;;;;;;;;;;;;;;;5082718;28;19928;-67
2023/05/08 04:47:10;;;;;;;;;;;;;;;;;;5091794;28;20379;-67
2023/05/08 04:49:37;;;;;;;;;;;;;;;;;;5075599;28;19973;-68
2023/05/08 04:52:05;;;;;;;;;;;;;;;;;;5070768;28;19925;-68
2023/05/08 04:54:32;;;;;;;;;;;;;;;;;;5076160;28;19948;-68
2023/05/08 04:56:59;;;;;;;;;;;;;;;;;;5071525;28;19978;-68
2023/05/08 04:59:26;;;;;;;;;;;;;;;;;;5067784;28;20531;-68
2023/05/08 05:01:53;;;;;;;;;;;;;;;;;;5076605;28;19978;-67
2023/05/08 05:04:20;;;;;;;;;;;;;;;;;;5070864;28;19925;-68
2023/05/08 05:06:47;;;;;;;;;;;;;;;;;;5071141;28;19971;-68
2023/05/08 05:09:14;;;;;;;;;;;;;;;;;;5070376;28;19924;-67
2023/05/08 05:11:41;;;;;;;;;;;;;;;;;;5063691;28;19924;-66
2023/05/08 05:14:08;;;;;;;;;;;;;;;;;;5071417;28;19998;-65
2023/05/08 05:16:35;;;;;;;;;;;;;;;;;;5076422;28;19977;-67
2023/05/08 05:19:06;;;;;;;;;;;;;;;;;;5072425;28;19924;-72
2023/05/08 05:21:33;;;;;;;;;;;;;;;;;;5076317;28;19946;-67
2023/05/08 05:24:00;;;;;;;;;;;;;;;;;;5073131;28;20015;-66
2023/05/08 05:26:27;;;;;;;;;;;;;;;;;;5074702;28;21019;-67
2023/05/08 05:28:54;;;;;;;;;;;;;;;;;;5075526;28;19924;-67
2023/05/08 05:31:21;;;;;;;;;;;;;;;;;;5072882;28;20390;-67
2023/05/08 05:33:48;;;;;;;;;;;;;;;;;;5073354;28;20454;-67
2023/05/08 05:36:15;;;;;;;;;;;;;;;;;;5074266;28;20058;-67
2023/05/08 05:38:42;;;;;;;;;;;;;;;;;;5075188;28;19924;-67
2023/05/08 05:41:09;;;;;;;;;;;;;;;;;;5072662;28;19968;-67
2023/05/08 05:43:36;;;;;;;;;;;;;;;;;;5075653;28;19924;-67
2023/05/08 05:46:03;;;;;;;;;;;;;;;;;;5073357;28;20006;-68
2023/05/08 05:48:30;;;;;;;;;;;;;;;;;;5074361;28;20010;-68
2023/05/08 05:50:57;;;;;;;;;;;;;;;;;;5072107;28;19955;-68
2023/05/08 05:53:24;;;;;;;;;;;;;;;;;;5069836;28;19924;-68
2023/05/08 05:55:51;;;;;;;;;;;;;;;;;;5077362;28;19928;-66
2023/05/08 05:58:18;;;;;;;;;;;;;;;;;;5080245;28;20386;-67
2023/05/08 06:00:46;;;;;;;;;;;;;;;;;;5074662;28;19970;-67
2023/05/08 06:03:13;;;;;;;;;;;;;;;;;;5069126;28;21876;-67
2023/05/08 06:05:40;;;;;;;;;;;;;;;;;;5073280;28;20304;-68
2023/05/08 06:08:07;;;;;;;;;;;;;;;;;;5066734;28;20049;-68
2023/05/08 06:10:34;;;;;;;;;;;;;;;;;;5065521;28;19925;-67
2023/05/08 06:13:01;;;;;;;;;;;;;;;;;;5064729;28;20397;-68
2023/05/08 06:15:28;;;;;;;;;;;;;;;;;;5062458;28;20656;-67
2023/05/08 06:17:55;;;;;;;;;;;;;;;;;;5072495;28;19986;-68
2023/05/08 06:20:22;;;;;;;;;;;;;;;;;;5087646;28;19928;-69
2023/05/08 06:22:50;;;;;;;;;;;;;;;;;;5074850;28;19925;-68
2023/05/08 06:25:18;;;;;;;;;;;;;;;;;;5078762;28;19925;-73
2023/05/08 06:27:45;;;;;;;;;;;;;;;;;;5064019;28;19932;-68
2023/05/08 06:30:12;;;;;;;;;;;;;;;;;;5066583;28;19924;-67
2023/05/08 06:32:39;;;;;;;;;;;;;;;;;;5072512;28;19925;-68
2023/05/08 06:35:06;;;;;;;;;;;;;;;;;;5071594;28;19982;-66
2023/05/08 06:37:33;;;;;;;;;;;;;;;;;;5070075;28;19985;-67
2023/05/08 06:40:00;;;;;;;;;;;;;;;;;;5069718;28;19978;-67
2023/05/08 06:42:27;;;;;;;;;;;;;;;;;;5070955;28;19933;-66
2023/05/08 06:44:54;;;;;;;;;;;;;;;;;;5066475;28;19985;-66
2023/05/08 06:47:21;;;;;;;;;;;;;;;;;;5071131;28;19933;-67
2023/05/08 06:49:48;;;;;;;;;;;;;;;;;;5072207;28;19943;-67
2023/05/08 06:52:15;;;;;;;;;;;;;;;;;;5070568;28;20459;-66
2023/05/08 06:54:42;;;;;;;;;;;;;;;;;;5072046;28;19924;-66
2023/05/08 06:57:10;;;;;;;;;;;;;;;;;;5072777;28;19977;-66
2023/05/08 06:59:37;;;;;;;;;;;;;;;;;;5075917;28;19925;-67
2023/05/08 07:02:04;;;;;;;;;;;;;;;;;;5094227;28;20394;-68
2023/05/08 07:04:31;;;;;;;;;;;;;;;;;;5076218;28;19955;-68
2023/05/08 07:06:59;;;;;;;;;;;;;;;;;;5076000;28;19928;-68
2023/05/08 07:09:26;;;;;;;;;;;;;;;;;;5065868;28;19932;-68
2023/05/08 07:11:53;;;;;;;;;;;;;;;;;;5073827;28;19972;-68
2023/05/08 07:14:20;;;;;;;;;;;;;;;;;;5073013;28;20310;-68
2023/05/08 07:16:47;;;;;;;;;;;;;;;;;;5072159;28;19974;-68
2023/05/08 07:19:14;;;;;;;;;;;;;;;;;;5070665;28;19970;-67
2023/05/08 07:21:41;;;;;;;;;;;;;;;;;;5072952;28;19931;-68
2023/05/08 07:24:08;;;;;;;;;;;;;;;;;;5069649;28;20448;-67
2023/05/08 07:26:35;;;;;;;;;;;;;;;;;;5073969;28;20310;-68
2023/05/08 07:29:02;;;;;;;;;;;;;;;;;;5070321;28;19952;-67
2023/05/08 07:31:29;;;;;;;;;;;;;;;;;;5073332;28;19978;-68
2023/05/08 07:33:56;;;;;;;;;;;;;;;;;;5059855;28;19955;-68
2023/05/08 07:36:23;;;;;;;;;;;;;;;;;;5072800;28;19994;-67
2023/05/08 07:38:50;;;;;;;;;;;;;;;;;;5070110;28;19971;-67
2023/05/08 07:41:17;;;;;;;;;;;;;;;;;;5063680;28;20337;-68
2023/05/08 07:43:44;;;;;;;;;;;;;;;;;;5072099;28;19964;-68
2023/05/08 07:46:11;;;;;;;;;;;;;;;;;;5073533;28;19928;-67
2023/05/08 07:48:38;;;;;;;;;;;;;;;;;;5071200;28;19928;-67
2023/05/08 07:51:05;;;;;;;;;;;;;;;;;;5080886;28;19970;-70
2023/05/08 07:53:32;;;;;;;;;;;;;;;;;;5084480;28;19923;-67
2023/05/08 07:55:59;;;;;;;;;;;;;;;;;;5072178;28;20452;-67
2023/05/08 07:58:26;;;;;;;;;;;;;;;;;;5072298;28;19971;-66
2023/05/08 08:00:53;;;;;;;;;;;;;;;;;;5078266;28;19981;-67
2023/05/08 08:03:20;;;;;;;;;;;;;;;;;;5084222;28;19930;-67
2023/05/08 08:05:47;;;;;;;;;;;;;;;;;;5072623;28;19977;-67
2023/05/08 08:08:14;;;;;;;;;;;;;;;;;;5070997;28;19928;-67
2023/05/08 08:10:41;;;;;;;;;;;;;;;;;;5063082;28;19928;-67
2023/05/08 08:13:08;;;;;;;;;;;;;;;;;;5059676;28;20021;-68
2023/05/08 08:15:36;;;;;;;;;;;;;;;;;;5060099;28;19925;-67
2023/05/08 08:18:03;;;;;;;;;;;;;;;;;;5064655;28;20472;-68
2023/05/08 08:20:30;;;;;;;;;;;;;;;;;;5071485;28;19947;-68
2023/05/08 08:22:57;;;;;;;;;;;;;;;;;;5066606;28;19925;-67
2023/05/08 08:25:24;;;;;;;;;;;;;;;;;;5064839;28;19928;-68
2023/05/08 08:27:52;;;;;;;;;;;;;;;;;;5067310;28;20376;-68
2023/05/08 08:30:19;;;;;;;;;;;;;;;;;;5068324;28;20330;-68
2023/05/08 08:32:46;;;;;;;;;;;;;;;;;;5069113;28;20561;-68
2023/05/08 08:35:13;;;;;;;;;;;;;;;;;;5069459;28;19932;-68
2023/05/08 08:37:40;;;;;;;;;;;;;;;;;;5077307;28;19936;-68
2023/05/08 08:40:07;;;;;;;;;;;;;;;;;;5072033;28;19928;-69
2023/05/08 08:42:35;;;;;;;;;;;;;;;;;;5071757;28;20032;-70
2023/05/08 08:45:02;;;;;;;;;;;;;;;;;;5066254;28;19934;-68
2023/05/08 08:47:29;;;;;;;;;;;;;;;;;;5068721;28;19935;-70
2023/05/08 08:49:56;;;;;;;;;;;;;;;;;;5070872;28;20374;-70
2023/05/08 08:52:23;;;;;;;;;;;;;;;;;;5075798;28;19925;-71
2023/05/08 08:54:50;;;;;;;;;;;;;;;;;;5069451;28;21049;-71
2023/05/08 08:57:17;;;;;;;;;;;;;;;;;;5071496;28;20272;-67
2023/05/08 08:59:44;;;;;;;;;;;;;;;;;;5073145;28;20466;-69
2023/05/08 09:02:13;;;;;;;;;;;;;;;;;;5065288;28;19925;-69
2023/05/08 09:04:40;;;;;;;;;;;;;;;;;;5069073;28;19925;-67
2023/05/08 09:07:07;;;;;;;;;;;;;;;;;;5071049;28;19929;-67
2023/05/08 09:09:34;;;;;;;;;;;;;;;;;;5073540;28;19936;-68
2023/05/08 09:12:01;;;;;;;;;;;;;;;;;;5069198;28;19932;-68
2023/05/08 09:14:28;;;;;;;;;;;;;;;;;;5071443;28;20326;-68
2023/05/08 09:16:55;;;;;;;;;;;;;;;;;;5072312;28;19979;-68
2023/05/08 09:19:22;;;;;;;;;;;;;;;;;;5075782;28;19976;-68
2023/05/08 09:21:49;;;;;;;;;;;;;;;;;;5071084;28;19978;-68
2023/05/08 09:24:16;;;;;;;;;;;;;;;;;;5061418;28;19924;-67
2023/05/08 09:26:43;;;;;;;;;;;;;;;;;;5065694;28;19932;-68
2023/05/08 09:29:10;;;;;;;;;;;;;;;;;;5059867;28;19971;-68
2023/05/08 09:31:38;;;;;;;;;;;;;;;;;;5063745;28;19957;-67
2023/05/08 09:34:05;;;;;;;;;;;;;;;;;;5065154;28;20346;-68
2023/05/08 09:36:33;;;;;;;;;;;;;;;;;;5074315;28;19928;-68
2023/05/08 09:39:00;;;;;;;;;;;;;;;;;;5065352;28;20302;-67
2023/05/08 09:41:27;;;;;;;;;;;;;;;;;;5067907;28;19931;-68
2023/05/08 09:43:54;;;;;;;;;;;;;;;;;;5069490;28;19931;-68
2023/05/08 09:46:22;;;;;;;;;;;;;;;;;;5070151;28;19970;-68
2023/05/08 09:48:49;;;;;;;;;;;;;;;;;;5075004;28;20410;-68
2023/05/08 09:51:16;;;;;;;;;;;;;;;;;;5067738;28;19935;-67
2023/05/08 09:53:43;;;;;;;;;;;;;;;;;;5064233;28;19935;-68
2023/05/08 09:56:10;;;;;;;;;;;;;;;;;;5058206;28;20339;-68
2023/05/08 09:58:37;;;;;;;;;;;;;;;;;;5062412;28;19932;-67
2023/05/08 10:01:04;;;;;;;;;;;;;;;;;;5063156;28;20418;-68
2023/05/08 10:03:31;;;;;;;;;;;;;;;;;;5064327;28;19929;-67
2023/05/08 10:05:58;;;;;;;;;;;;;;;;;;5069522;28;19982;-67
2023/05/08 10:08:25;;;;;;;;;;;;;;;;;;5072753;28;19974;-67
2023/05/08 10:10:52;;;;;;;;;;;;;;;;;;5072500;28;20022;-68
2023/05/08 10:13:20;;;;;;;;;;;;;;;;;;5061143;28;19924;-68
2023/05/08 10:15:47;;;;;;;;;;;;;;;;;;5065390;28;19925;-67
2023/05/08 10:18:14;;;;;;;;;;;;;;;;;;5069569;28;20383;-67
2023/05/08 10:20:41;;;;;;;;;;;;;;;;;;5069160;28;20021;-68
2023/05/08 10:23:10;;;;;;;;;;;;;;;;;;5068905;28;19940;-67
2023/05/08 10:25:37;;;;;;;;;;;;;;;;;;5066145;28;20311;-68
2023/05/08 10:28:04;;;;;;;;;;;;;;;;;;5071377;28;19925;-67
2023/05/08 10:30:31;;;;;;;;;;;;;;;;;;5079066;28;20416;-68
2023/05/08 10:32:58;;;;;;;;;;;;;;;;;;5078957;28;19970;-68
2023/05/08 10:35:25;;;;;;;;;;;;;;;;;;5078008;28;19959;-67
2023/05/08 10:37:52;;;;;;;;;;;;;;;;;;5073033;28;19978;-68
2023/05/08 10:40:20;;;;;;;;;;;;;;;;;;5082001;28;20025;-68
2023/05/08 10:42:47;;;;;;;;;;;;;;;;;;5074234;28;20022;-68
2023/05/08 10:45:14;;;;;;;;;;;;;;;;;;5078742;28;20349;-68
2023/05/08 10:47:41;;;;;;;;;;;;;;;;;;5091781;28;19977;-67
2023/05/08 10:50:08;;;;;;;;;;;;;;;;;;5093704;28;19924;-67
2023/05/08 10:52:35;;;;;;;;;;;;;;;;;;5074422;28;19928;-68
2023/05/08 10:55:03;;;;;;;;;;;;;;;;;;5071780;28;19928;-68
2023/05/08 10:57:30;;;;;;;;;;;;;;;;;;5069071;28;19925;-68
2023/05/08 10:59:57;;;;;;;;;;;;;;;;;;5069005;28;19925;-68
2023/05/08 11:02:24;;;;;;;;;;;;;;;;;;5072209;28;20329;-68
2023/05/08 11:04:51;;;;;;;;;;;;;;;;;;5069487;28;19970;-68
2023/05/08 11:07:18;;;;;;;;;;;;;;;;;;5072190;28;19971;-68
2023/05/08 11:09:45;;;;;;;;;;;;;;;;;;5069555;28;19925;-68
2023/05/08 11:12:12;;;;;;;;;;;;;;;;;;5073246;28;19931;-67
2023/05/08 11:14:39;;;;;;;;;;;;;;;;;;5073025;28;19928;-68
2023/05/08 11:17:07;;;;;;;;;;;;;;;;;;5072757;28;20019;-68
2023/05/08 11:19:34;;;;;;;;;;;;;;;;;;5073562;28;19978;-68
2023/05/08 11:22:01;;;;;;;;;;;;;;;;;;5069040;28;19924;-68
2023/05/08 11:24:28;;;;;;;;;;;;;;;;;;5070186;28;19971;-69
2023/05/08 11:26:55;;;;;;;;;;;;;;;;;;5068975;28;19924;-69
2023/05/08 11:29:22;;;;;;;;;;;;;;;;;;5073172;28;19925;-68
2023/05/08 11:31:49;;;;;;;;;;;;;;;;;;5073674;28;20455;-68
2023/05/08 11:34:16;;;;;;;;;;;;;;;;;;5072710;28;20033;-68
2023/05/08 11:36:43;;;;;;;;;;;;;;;;;;5072317;28;19932;-68
2023/05/08 11:39:11;;;;;;;;;;;;;;;;;;5072600;28;19990;-69
2023/05/08 11:41:38;;;;;;;;;;;;;;;;;;5070501;28;20075;-68
2023/05/08 11:44:08;;;;;;;;;;;;;;;;;;5072802;28;19960;-68
2023/05/08 11:46:35;;;;;;;;;;;;;;;;;;5072018;28;20383;-69
2023/05/08 11:49:02;;;;;;;;;;;;;;;;;;5073390;28;19966;-68
2023/05/08 11:51:29;;;;;;;;;;;;;;;;;;5065252;28;19964;-68
2023/05/08 11:53:56;;;;;;;;;;;;;;;;;;5069826;28;19924;-68
2023/05/08 11:56:23;;;;;;;;;;;;;;;;;;5072791;28;19924;-69
2023/05/08 11:58:50;;;;;;;;;;;;;;;;;;5072668;28;19924;-68
2023/05/08 12:01:17;;;;;;;;;;;;;;;;;;5072864;28;19986;-68
2023/05/08 12:03:44;;;;;;;;;;;;;;;;;;5072382;28;19925;-69
2023/05/08 12:06:12;;;;;;;;;;;;;;;;;;5072437;28;19929;-69
2023/05/08 12:08:39;;;;;;;;;;;;;;;;;;5056393;28;20383;-69
2023/05/08 12:11:06;;;;;;;;;;;;;;;;;;5064598;28;19940;-69
2023/05/08 12:13:33;;;;;;;;;;;;;;;;;;5067607;28;19930;-70
2023/05/08 12:16:00;;;;;;;;;;;;;;;;;;5058376;28;20287;-69
2023/05/08 12:18:27;;;;;;;;;;;;;;;;;;5071695;28;20332;-70
2023/05/08 12:20:55;;;;;;;;;;;;;;;;;;5065798;28;19964;-70
2023/05/08 12:23:22;;;;;;;;;;;;;;;;;;5076824;28;19931;-69
2023/05/08 12:25:49;;;;;;;;;;;;;;;;;;5069823;28;20084;-70
2023/05/08 12:28:16;;;;;;;;;;;;;;;;;;5066718;28;20391;-70
2023/05/08 12:30:43;;;;;;;;;;;;;;;;;;5064996;28;19933;-69
2023/05/08 12:33:10;;;;;;;;;;;;;;;;;;5068981;28;19924;-69
2023/05/08 12:35:37;;;;;;;;;;;;;;;;;;5064754;28;19928;-69
2023/05/08 12:38:04;;;;;;;;;;;;;;;;;;5064555;28;19928;-69
2023/05/08 12:40:31;;;;;;;;;;;;;;;;;;5067720;28;19978;-67
2023/05/08 12:42:59;;;;;;;;;;;;;;;;;;5068061;28;19925;-68
2023/05/08 12:45:27;;;;;;;;;;;;;;;;;;5061218;28;20035;-67
2023/05/08 12:47:55;;;;;;;;;;;;;;;;;;5076996;28;19931;-67
2023/05/08 12:50:22;;;;;;;;;;;;;;;;;;5064025;28;20450;-67
2023/05/08 12:52:49;;;;;;;;;;;;;;;;;;5075639;28;19928;-68
2023/05/08 12:55:16;;;;;;;;;;;;;;;;;;5068602;28;20383;-68
2023/05/08 12:57:44;;;;;;;;;;;;;;;;;;5074899;22;19933;-67
2023/05/08 13:00:11;;;;;;;;;;;;;;;;;;5068346;28;19924;-68
2023/05/08 13:02:38;;;;;;;;;;;;;;;;;;5065948;28;20349;-68
2023/05/08 13:05:05;;;;;;;;;;;;;;;;;;5054035;28;19932;-67
2023/05/08 13:07:32;;;;;;;;;;;;;;;;;;5065662;28;20001;-68
2023/05/08 13:09:59;;;;;;;;;;;;;;;;;;5067565;28;19925;-68
2023/05/08 13:12:26;;;;;;;;;;;;;;;;;;5065336;28;19924;-69
2023/05/08 13:14:53;;;;;;;;;;;;;;;;;;5066509;28;20485;-68
2023/05/08 13:17:20;;;;;;;;;;;;;;;;;;5063665;28;19964;-68
2023/05/08 13:19:47;;;;;;;;;;;;;;;;;;5067472;28;19925;-66
2023/05/08 13:22:15;;;;;;;;;;;;;;;;;;5068697;28;19975;-68
2023/05/08 13:24:41;;;;;;;;;;;;;;;;;;5065259;28;19924;-66
2023/05/08 13:27:09;;;;;;;;;;;;;;;;;;5066514;28;19971;-68
2023/05/08 13:29:36;;;;;;;;;;;;;;;;;;5068826;28;20006;-66
2023/05/08 13:32:03;;;;;;;;;;;;;;;;;;5064847;28;19977;-68
2023/05/08 13:34:30;;;;;;;;;;;;;;;;;;5068680;28;20027;-69
2023/05/08 13:36:57;;;;;;;;;;;;;;;;;;5073957;22;21629;-68
2023/05/08 13:39:24;;;;;;;;;;;;;;;;;;5061641;28;19931;-68
2023/05/08 13:41:51;;;;;;;;;;;;;;;;;;5066872;28;20375;-68
2023/05/08 13:44:18;;;;;;;;;;;;;;;;;;5064540;28;20007;-68
2023/05/08 13:46:45;;;;;;;;;;;;;;;;;;5067430;28;19925;-68
2023/05/08 13:49:12;;;;;;;;;;;;;;;;;;5070774;28;19924;-68
2023/05/08 13:51:39;;;;;;;;;;;;;;;;;;5067920;28;19928;-68
2023/05/08 13:54:06;;;;;;;;;;;;;;;;;;5072974;28;19978;-69
2023/05/08 13:56:34;;;;;;;;;;;;;;;;;;5078406;28;19924;-69
2023/05/08 13:59:01;;;;;;;;;;;;;;;;;;5071026;28;19931;-69
2023/05/08 14:01:28;;;;;;;;;;;;;;;;;;5066394;28;19924;-68
2023/05/08 14:03:55;;;;;;;;;;;;;;;;;;5068466;28;20452;-68
2023/05/08 14:06:22;;;;;;;;;;;;;;;;;;5073894;28;19985;-69
2023/05/08 14:08:49;;;;;;;;;;;;;;;;;;5071374;28;19989;-68
2023/05/08 14:11:16;;;;;;;;;;;;;;;;;;5075647;28;19933;-68
2023/05/08 14:13:43;;;;;;;;;;;;;;;;;;5068030;28;19928;-68
2023/05/08 14:16:11;;;;;;;;;;;;;;;;;;5076461;28;19977;-68
2023/05/08 14:18:39;;;;;;;;;;;;;;;;;;5068889;28;19944;-68
2023/05/08 14:21:06;;;;;;;;;;;;;;;;;;5056576;28;19928;-69
2023/05/08 14:23:34;;;;;;;;;;;;;;;;;;5065314;28;19933;-69
2023/05/08 14:26:04;;;;;;;;;;;;;;;;;;5066358;28;20000;-68
2023/05/08 14:28:31;;;;;;;;;;;;;;;;;;5069934;28;19947;-68
2023/05/08 14:30:58;;;;;;;;;;;;;;;;;;5069219;28;19982;-68
2023/05/08 14:33:25;;;;;;;;;;;;;;;;;;5072281;28;19924;-70
2023/05/08 14:35:52;;;;;;;;;;;;;;;;;;5069555;28;19949;-69
2023/05/08 14:38:19;;;;;;;;;;;;;;;;;;5065505;28;19925;-69
2023/05/08 14:40:47;;;;;;;;;;;;;;;;;;5069285;28;19932;-69
2023/05/08 14:43:14;;;;;;;;;;;;;;;;;;5063959;28;19929;-70
2023/05/08 14:45:41;;;;;;;;;;;;;;;;;;5068279;28;19933;-72
2023/05/08 14:48:08;;;;;;;;;;;;;;;;;;5065995;28;20375;-72
2023/05/08 14:50:35;;;;;;;;;;;;;;;;;;5067996;28;19928;-72
2023/05/08 14:53:02;;;;;;;;;;;;;;;;;;5063705;28;19991;-71
2023/05/08 14:55:29;;;;;;;;;;;;;;;;;;5061517;28;19970;-72
2023/05/08 14:57:56;;;;;;;;;;;;;;;;;;5063845;28;19924;-73
2023/05/08 15:00:23;;;;;;;;;;;;;;;;;;5072797;28;20004;-73
2023/05/08 15:02:50;;;;;;;;;;;;;;;;;;5065182;28;20335;-72
2023/05/08 15:05:17;;;;;;;;;;;;;;;;;;5072865;28;19924;-73
2023/05/08 15:07:44;;;;;;;;;;;;;;;;;;5069819;28;20002;-72
2023/05/08 15:10:11;;;;;;;;;;;;;;;;;;5071287;28;19931;-74
2023/05/08 15:12:38;;;;;;;;;;;;;;;;;;5068435;28;19929;-72
2023/05/08 15:15:05;;;;;;;;;;;;;;;;;;5076614;28;19924;-72
2023/05/08 15:17:34;;;;;;;;;;;;;;;;;;5070316;28;20268;-73
2023/05/08 15:20:01;;;;;;;;;;;;;;;;;;5062719;28;20019;-72
2023/05/08 15:22:28;;;;;;;;;;;;;;;;;;5071770;28;20343;-71
2023/05/08 15:25:00;;;;;;;;;;;;;;;;;;5069354;28;19928;-73
2023/05/08 15:27:27;;;;;;;;;;;;;;;;;;5068783;28;19925;-73
2023/05/08 15:29:54;;;;;;;;;;;;;;;;;;5062629;28;20002;-74
2023/05/08 15:32:21;;;;;;;;;;;;;;;;;;5076864;28;20294;-73
2023/05/08 15:34:49;;;;;;;;;;;;;;;;;;5091754;28;19928;-73
2023/05/08 15:37:16;;;;;;;;;;;;;;;;;;5069850;28;19963;-71
2023/05/08 15:39:43;;;;;;;;;;;;;;;;;;5074858;28;19924;-71
2023/05/08 15:42:10;;;;;;;;;;;;;;;;;;5068785;28;19955;-72
2023/05/08 15:44:37;;;;;;;;;;;;;;;;;;5069063;28;20395;-73
2023/05/08 15:47:04;;;;;;;;;;;;;;;;;;5062993;28;19932;-70
2023/05/08 15:49:31;;;;;;;;;;;;;;;;;;5068893;28;19936;-69
2023/05/08 15:51:58;;;;;;;;;;;;;;;;;;5070877;28;19956;-69
2023/05/08 15:54:25;;;;;;;;;;;;;;;;;;5089681;28;20386;-70
2023/05/08 15:56:52;;;;;;;;;;;;;;;;;;5062164;28;20011;-70
2023/05/08 15:59:19;;;;;;;;;;;;;;;;;;5069732;28;19935;-70
2023/05/08 16:01:46;;;;;;;;;;;;;;;;;;5069303;28;19924;-68
2023/05/08 16:04:13;;;;;;;;;;;;;;;;;;5069518;28;20462;-70
2023/05/08 16:06:40;;;;;;;;;;;;;;;;;;5066556;28;19940;-70
2023/05/08 16:09:08;;;;;;;;;;;;;;;;;;5065655;28;19928;-71
2023/05/08 16:11:35;;;;;;;;;;;;;;;;;;5069424;28;19924;-70
2023/05/08 16:14:02;;;;;;;;;;;;;;;;;;5066460;28;19956;-69
2023/05/08 16:16:29;;;;;;;;;;;;;;;;;;5067226;28;20381;-69
2023/05/08 16:18:56;;;;;;;;;;;;;;;;;;5067457;28;19925;-69
2023/05/08 16:21:24;;;;;;;;;;;;;;;;;;5068653;28;19925;-68
2023/05/08 16:23:52;;;;;;;;;;;;;;;;;;5060528;28;19943;-69
2023/05/08 16:26:19;;;;;;;;;;;;;;;;;;5069670;28;19925;-70
2023/05/08 16:28:46;;;;;;;;;;;;;;;;;;5071298;28;19929;-69
2023/05/08 16:31:13;;;;;;;;;;;;;;;;;;5067236;28;19924;-70
2023/05/08 16:33:40;;;;;;;;;;;;;;;;;;5069807;28;20002;-69
2023/05/08 16:36:07;;;;;;;;;;;;;;;;;;5065882;28;20358;-69
2023/05/08 16:38:34;;;;;;;;;;;;;;;;;;5077478;28;19924;-69
2023/05/08 16:41:01;;;;;;;;;;;;;;;;;;5077999;28;19924;-69